Time;durP1;ratioP1;P1;durP2;ratioP2;P2;SDS_P1;SDS_P2;PMS_P1;PMS_P2;Temp;Humidity;BMP_temperature;BMP_pressure;BME280_temperature;BME280_humidity;BME280_pressure;Samples;Min_cycle;Max_cycle;Signal;HPM_P1;HPM_P2
2024/03/15 00:02:26;;;;;;;29.60;19.20;;;;;;;4.62;100.00;101042.34;106615;1259;68058;-86
2024/03/15 00:04:54;;;;;;;28.20;18.60;;;;;;;4.62;100.00;101041.73;107022;1253;71961;-87
2024/03/15 00:07:28;;;;;;;29.00;19.20;;;;;;;4.69;100.00;101041.44;106548;1253;61369;-86
2024/03/15 00:10:02;;;;;;;27.10;18.90;;;;;;;4.78;100.00;101042.45;106648;1254;61267;-85
2024/03/15 00:12:35;;;;;;;32.20;20.20;;;;;;;4.81;100.00;101040.80;106557;1251;73681;-86
2024/03/15 00:15:10;;;;;;;31.00;20.10;;;;;;;4.83;100.00;101040.06;106529;1256;67011;-80
2024/03/15 00:17:43;;;;;;;29.50;18.50;;;;;;;4.84;100.00;101039.10;106225;1250;72661;-81
2024/03/15 00:20:17;;;;;;;28.70;18.20;;;;;;;4.82;100.00;101039.41;106589;1253;61382;-85
2024/03/15 00:22:51;;;;;;;29.30;19.20;;;;;;;4.89;100.00;101039.94;106475;1259;61282;-80
2024/03/15 00:25:25;;;;;;;28.80;17.80;;;;;;;5.00;100.00;101037.42;106410;1253;73762;-86
2024/03/15 00:28:01;;;;;;;28.00;18.40;;;;;;;4.94;100.00;101038.39;106363;1250;67261;-80
2024/03/15 00:30:35;;;;;;;28.10;17.50;;;;;;;4.79;100.00;101039.48;106357;1257;72745;-80
2024/03/15 00:33:12;;;;;;;33.10;18.80;;;;;;;4.67;100.00;101041.54;106466;1256;61215;-80
2024/03/15 00:35:47;;;;;;;28.70;19.30;;;;;;;4.62;100.00;101041.77;106423;1250;61280;-80
2024/03/15 00:38:21;;;;;;;28.50;19.20;;;;;;;4.62;100.00;101041.67;106573;1251;73688;-80
2024/03/15 00:40:55;;;;;;;27.60;18.20;;;;;;;4.69;100.00;101041.43;106572;1256;67234;-80
2024/03/15 00:43:29;;;;;;;30.90;18.10;;;;;;;4.67;100.00;101039.63;106407;1253;72698;-86
2024/03/15 00:46:02;;;;;;;28.00;17.60;;;;;;;4.69;100.00;101040.36;106378;1254;62051;-80
2024/03/15 00:48:37;;;;;;;27.40;17.60;;;;;;;4.75;100.00;101037.33;106422;1250;61148;-80
2024/03/15 00:51:12;;;;;;;27.80;17.30;;;;;;;4.71;100.00;101032.50;106476;1250;74574;-80
2024/03/15 00:53:46;;;;;;;29.20;17.70;;;;;;;4.68;100.00;101033.02;106527;1256;67600;-86
2024/03/15 00:56:20;;;;;;;29.60;17.50;;;;;;;4.72;100.00;101035.36;106658;1254;71701;-85
2024/03/15 00:58:54;;;;;;;28.00;17.20;;;;;;;4.67;100.00;101035.09;106451;1250;61269;-80
2024/03/15 01:01:28;;;;;;;30.00;17.90;;;;;;;4.67;100.00;101034.46;106672;1256;61359;-86
2024/03/15 01:04:04;;;;;;;28.30;17.40;;;;;;;4.69;100.00;101034.77;106394;1258;74663;-86
2024/03/15 01:06:38;;;;;;;26.40;17.70;;;;;;;4.69;100.00;101033.52;107146;1256;67448;-86
2024/03/15 01:09:13;;;;;;;28.20;18.30;;;;;;;4.69;100.00;101034.14;106597;1250;72674;-86
2024/03/15 01:11:47;;;;;;;30.50;19.30;;;;;;;4.67;100.00;101034.83;106402;1254;61266;-80
2024/03/15 01:14:21;;;;;;;28.30;18.40;;;;;;;4.70;100.00;101030.75;106706;1253;61309;-86
2024/03/15 01:16:55;;;;;;;27.30;18.30;;;;;;;4.70;100.00;101028.58;106591;1250;75206;-80
2024/03/15 01:19:32;;;;;;;29.20;18.20;;;;;;;4.66;100.00;101030.09;106532;1254;67122;-81
2024/03/15 01:22:07;;;;;;;26.90;17.80;;;;;;;4.69;100.00;101023.19;106533;1258;71381;-80
2024/03/15 01:24:41;;;;;;;32.00;17.70;;;;;;;4.68;100.00;101022.98;106482;1250;61374;-80
2024/03/15 01:27:16;;;;;;;27.10;17.70;;;;;;;4.61;100.00;101023.82;106647;1250;61326;-80
2024/03/15 01:29:50;;;;;;;31.50;17.70;;;;;;;4.61;100.00;101029.23;106585;1251;73789;-86
2024/03/15 01:32:24;;;;;;;27.90;18.40;;;;;;;4.62;100.00;101027.10;106642;1259;67459;-86
2024/03/15 01:34:58;;;;;;;28.10;18.90;;;;;;;4.60;100.00;101022.76;107240;1256;71467;-86
2024/03/15 01:37:32;;;;;;;31.40;18.90;;;;;;;4.86;100.00;101023.44;106478;1256;61368;-86
2024/03/15 01:40:09;;;;;;;28.90;18.70;;;;;;;4.91;100.00;101023.39;106370;1252;296470;-80
2024/03/15 01:42:42;;;;;;;28.70;18.60;;;;;;;4.63;100.00;101023.14;106587;1256;74652;-86
2024/03/15 01:45:17;;;;;;;33.00;20.10;;;;;;;4.59;100.00;101024.85;106348;1259;67267;-80
2024/03/15 01:47:51;;;;;;;30.00;19.70;;;;;;;4.61;100.00;101027.33;106567;1256;71383;-86
2024/03/15 01:50:25;;;;;;;29.80;20.00;;;;;;;4.65;100.00;101024.52;106477;1257;61343;-81
2024/03/15 01:52:59;;;;;;;31.20;19.00;;;;;;;4.57;100.00;101028.20;106740;1250;61255;-80
2024/03/15 01:55:33;;;;;;;31.30;20.00;;;;;;;4.63;100.00;101025.66;106202;1253;74914;-80
2024/03/15 01:58:08;;;;;;;28.60;19.50;;;;;;;4.66;100.00;101024.69;106551;1250;67143;-82
2024/03/15 02:00:41;;;;;;;32.90;22.20;;;;;;;4.67;100.00;101025.88;106483;1256;71466;-81
2024/03/15 02:03:15;;;;;;;31.50;20.80;;;;;;;4.69;100.00;101023.52;106242;1253;61379;-86
2024/03/15 02:05:50;;;;;;;36.50;22.40;;;;;;;4.73;100.00;101025.43;106669;1253;61191;-85
2024/03/15 02:08:24;;;;;;;45.00;27.60;;;;;;;4.78;100.00;101022.89;106379;1259;74615;-86
2024/03/15 02:10:58;;;;;;;42.40;26.00;;;;;;;4.77;100.00;101024.71;106468;1258;67269;-80
2024/03/15 02:13:32;;;;;;;33.80;21.90;;;;;;;4.81;100.00;101018.77;106627;1257;72620;-86
2024/03/15 02:16:07;;;;;;;41.00;22.40;;;;;;;4.78;100.00;101023.77;106580;1258;61259;-80
2024/03/15 02:18:41;;;;;;;37.80;21.90;;;;;;;4.78;100.00;101029.89;106491;1251;61365;-80
2024/03/15 02:21:15;;;;;;;31.50;20.90;;;;;;;4.76;100.00;101032.31;106294;1251;72457;-80
2024/03/15 02:23:49;;;;;;;30.50;20.30;;;;;;;4.74;100.00;101033.30;106928;1253;68857;-81
2024/03/15 02:26:23;;;;;;;33.00;22.10;;;;;;;4.73;100.00;101030.35;106644;1251;70379;-86
2024/03/15 02:28:57;;;;;;;33.80;21.90;;;;;;;4.76;100.00;101032.11;106584;1251;61308;-80
2024/03/15 02:31:31;;;;;;;30.60;20.80;;;;;;;4.81;100.00;101038.46;106517;1252;61331;-86
2024/03/15 02:34:05;;;;;;;29.40;18.60;;;;;;;4.89;100.00;101040.66;106532;1256;74666;-80
2024/03/15 02:36:40;;;;;;;28.10;18.80;;;;;;;4.88;100.00;101042.58;106511;1257;67089;-85
2024/03/15 02:39:16;;;;;;;29.50;19.50;;;;;;;4.84;100.00;101044.73;106299;1257;72683;-80
2024/03/15 02:41:50;;;;;;;27.90;18.50;;;;;;;4.81;100.00;101048.87;106691;1257;61850;-80
2024/03/15 02:44:24;;;;;;;30.40;18.50;;;;;;;4.76;100.00;101048.89;106513;1258;61155;-80
2024/03/15 02:46:58;;;;;;;27.90;18.50;;;;;;;4.69;100.00;101046.22;106468;1251;74650;-80
2024/03/15 02:49:32;;;;;;;30.20;20.10;;;;;;;4.70;100.00;101047.09;106391;1251;67525;-86
2024/03/15 02:52:06;;;;;;;29.10;19.30;;;;;;;4.70;100.00;101046.95;106339;1259;71674;-85
2024/03/15 02:54:40;;;;;;;30.20;19.30;;;;;;;4.69;100.00;101048.97;106291;1259;61183;-85
2024/03/15 02:57:14;;;;;;;28.80;19.80;;;;;;;4.70;100.00;101048.25;107365;1256;61120;-80
2024/03/15 02:59:48;;;;;;;29.60;19.80;;;;;;;4.70;100.00;101046.63;106564;1251;75008;-85
2024/03/15 03:02:23;;;;;;;26.20;18.30;;;;;;;4.73;100.00;101048.98;106584;1258;67421;-80
2024/03/15 03:04:56;;;;;;;27.70;18.80;;;;;;;4.74;100.00;101052.41;106486;1258;72724;-85
2024/03/15 03:07:30;;;;;;;32.70;21.10;;;;;;;4.77;100.00;101052.05;106591;1254;61247;-86
2024/03/15 03:10:05;;;;;;;30.50;20.40;;;;;;;4.80;100.00;101050.63;106304;1257;61313;-86
2024/03/15 03:12:38;;;;;;;28.40;19.20;;;;;;;4.86;100.00;101054.44;106781;1250;73335;-85
2024/03/15 03:15:14;;;;;;;31.00;20.40;;;;;;;4.88;100.00;101057.46;106493;1251;68307;-80
2024/03/15 03:17:51;;;;;;;30.50;19.80;;;;;;;4.86;100.00;101060.06;106744;1257;73283;-86
2024/03/15 03:20:28;;;;;;;30.70;19.90;;;;;;;4.85;100.00;101057.43;106583;1255;61270;-80
2024/03/15 03:23:08;;;;;;;33.10;20.70;;;;;;;4.85;100.00;101054.83;106600;1256;61244;-80
2024/03/15 03:25:42;;;;;;;27.80;18.30;;;;;;;4.85;100.00;101051.75;106273;1251;74317;-81
2024/03/15 03:28:16;;;;;;;30.30;20.00;;;;;;;4.90;100.00;101053.15;106935;1254;68361;-81
2024/03/15 03:30:44;;;;;;;31.60;19.00;;;;;;;4.92;100.00;101050.61;106360;1257;72735;-85
2024/03/15 03:33:18;;;;;;;29.60;20.00;;;;;;;4.92;100.00;101052.66;106560;1257;61356;-86
2024/03/15 03:35:55;;;;;;;32.00;18.90;;;;;;;4.87;100.00;101055.96;106557;1256;61177;-81
2024/03/15 03:38:28;;;;;;;32.30;21.10;;;;;;;4.85;100.00;101058.91;106628;1260;75098;-86
2024/03/15 03:40:56;;;;;;;34.70;21.50;;;;;;;4.84;100.00;101056.55;106387;1258;67921;-86
2024/03/15 03:43:30;;;;;;;33.60;21.20;;;;;;;4.84;100.00;101061.92;106694;1257;71298;-86
2024/03/15 03:46:08;;;;;;;31.00;19.90;;;;;;;4.85;100.00;101063.95;106389;1256;61301;-80
2024/03/15 07:48:01;;;;;;;43.30;19.20;;;;;;;5.94;100.00;101142.58;107084;1251;62140;-86
2024/03/15 07:50:41;;;;;;;46.90;21.40;;;;;;;5.98;100.00;101136.89;106376;1250;76621;-87
2024/03/15 07:53:21;;;;;;;40.80;19.40;;;;;;;6.00;100.00;101136.41;106692;1250;69491;-86
2024/03/15 07:56:04;;;;;;;52.60;20.50;;;;;;;6.04;100.00;101134.01;106590;1251;73927;-81
2024/03/15 07:58:45;;;;;;;45.70;20.30;;;;;;;6.21;100.00;101134.25;106568;1254;62400;-81
2024/03/15 08:01:26;;;;;;;44.90;20.20;;;;;;;6.49;100.00;101131.98;106552;1251;60862;-87
2024/03/15 08:04:08;;;;;;;48.10;20.50;;;;;;;6.56;100.00;101131.77;106456;1257;75362;-86
2024/03/15 08:06:49;;;;;;;40.10;19.70;;;;;;;6.24;100.00;101136.23;106542;1257;70718;-87
2024/03/15 08:09:23;;;;;;;45.70;20.30;;;;;;;6.18;100.00;101135.80;106528;1253;74338;-86
2024/03/15 08:12:03;;;;;;;45.60;20.70;;;;;;;6.18;100.00;101135.27;106488;1254;62442;-86
2024/03/15 08:14:38;;;;;;;47.40;20.70;;;;;;;6.21;100.00;101134.00;106865;1254;61866;-81
2024/03/15 08:17:14;;;;;;;43.40;20.10;;;;;;;6.26;100.00;101133.94;107221;1250;74616;-86
2024/03/15 08:19:49;;;;;;;43.40;19.40;;;;;;;6.25;100.00;101132.79;107759;1251;69961;-87
2024/03/15 08:22:23;;;;;;;47.10;21.50;;;;;;;6.27;100.00;101135.91;106339;1251;73632;-86
2024/03/15 08:25:04;;;;;;;39.40;18.70;;;;;;;6.28;100.00;101137.35;106726;1251;62389;-86
2024/03/15 08:27:45;;;;;;;45.30;20.40;;;;;;;6.26;100.00;101137.03;106789;1251;61156;-87
2024/03/15 08:30:29;;;;;;;41.20;18.80;;;;;;;6.43;100.00;101139.40;106632;1251;75736;-86
2024/03/15 08:33:10;;;;;;;40.90;19.70;;;;;;;6.35;100.00;101138.44;106672;1253;69634;-87
2024/03/15 08:35:50;;;;;;;39.50;18.50;;;;;;;6.40;100.00;101140.35;106599;1250;75378;-81
2024/03/15 08:38:30;;;;;;;39.30;17.30;;;;;;;6.39;100.00;101143.64;106626;1253;61318;-81
2024/03/15 08:41:13;;;;;;;41.70;18.90;;;;;;;6.37;100.00;101141.70;106407;1251;61345;-86
2024/03/15 08:43:53;;;;;;;38.40;18.50;;;;;;;6.39;100.00;101147.68;106421;1256;76806;-87
2024/03/15 08:46:33;;;;;;;36.70;18.80;;;;;;;6.44;100.00;101147.36;106563;1250;70661;-81
2024/03/15 08:49:15;;;;;;;44.40;19.60;;;;;;;6.44;100.00;101147.59;106478;1253;72941;-87
2024/03/15 08:51:56;;;;;;;;;;;;;;;6.44;100.00;101145.39;106407;1252;63341;-86
2024/03/15 08:54:36;;;;;;;46.30;19.30;;;;;;;6.45;100.00;101139.47;106349;1251;61241;-81
2024/03/15 08:57:16;;;;;;;37.80;19.20;;;;;;;6.53;100.00;101137.02;106432;1251;75677;-81
2024/03/15 08:59:58;;;;;;;44.20;19.30;;;;;;;6.57;100.00;101140.11;106541;1254;71094;-81
2024/03/15 09:02:37;;;;;;;38.80;18.30;;;;;;;6.61;100.00;101140.97;106428;1253;73961;-86
2024/03/15 09:05:19;;;;;;;43.40;20.80;;;;;;;6.67;100.00;101139.97;106428;1253;62229;-86
2024/03/15 09:07:59;;;;;;;43.40;20.00;;;;;;;6.71;100.00;101137.88;106457;1253;61208;-86
2024/03/15 09:10:40;;;;;;;44.20;19.50;;;;;;;6.72;100.00;101138.93;106352;1256;75732;-81
2024/03/15 09:13:20;;;;;;;37.40;19.20;;;;;;;6.73;100.00;101140.95;106343;1256;70466;-84
2024/03/15 09:16:01;;;;;;;42.00;20.00;;;;;;;6.71;100.00;101137.44;106260;1257;73753;-81
2024/03/15 09:18:43;;;;;;;43.10;19.90;;;;;;;6.71;100.00;101140.45;106643;1251;62320;-86
2024/03/15 09:21:23;;;;;;;38.60;19.00;;;;;;;6.72;100.00;101139.79;106592;1250;61231;-81
2024/03/15 09:24:04;;;;;;;37.80;19.00;;;;;;;6.73;100.00;101139.92;106411;1254;77061;-87
2024/03/15 09:26:45;;;;;;;36.20;18.90;;;;;;;6.75;100.00;101136.02;106461;1250;69346;-86
2024/03/15 09:29:25;;;;;;;35.30;17.20;;;;;;;6.76;100.00;101143.21;106497;1251;74677;-81
2024/03/15 09:32:05;;;;;;;37.10;18.70;;;;;;;6.75;100.00;101138.75;106406;1250;63971;-81
2024/03/15 09:34:54;;;;;;;33.20;17.70;;;;;;;6.75;100.00;101139.17;106355;1251;62552;-81
2024/03/15 09:37:38;;;;;;;38.90;18.40;;;;;;;6.72;100.00;101137.95;106637;1251;75758;-81
2024/03/15 09:40:18;;;;;;;43.00;19.20;;;;;;;6.71;100.00;101139.02;106279;1257;70843;-81
2024/03/15 09:42:58;;;;;;;39.60;19.70;;;;;;;6.72;100.00;101140.67;106553;1253;74989;-81
2024/03/15 09:45:38;;;;;;;34.60;19.40;;;;;;;6.73;100.00;101143.41;106537;1251;62431;-87
2024/03/15 09:48:18;;;;;;;40.00;18.90;;;;;;;6.70;100.00;101142.27;106515;1250;62169;-86
2024/03/15 09:51:00;;;;;;;34.90;18.20;;;;;;;6.68;100.00;101138.16;106396;1257;76864;-86
2024/03/15 09:53:40;;;;;;;36.10;19.20;;;;;;;6.67;100.00;101138.98;106518;1251;69961;-86
2024/03/15 09:56:22;;;;;;;37.30;18.40;;;;;;;6.66;100.00;101138.08;106382;1251;74173;-81
2024/03/15 09:58:59;;;;;;;37.50;18.20;;;;;;;6.68;100.00;101136.52;106479;1254;63120;-79
2024/03/15 10:01:39;;;;;;;30.60;16.40;;;;;;;6.78;100.00;101132.38;106769;1251;62742;-85
2024/03/15 10:04:19;;;;;;;31.00;17.30;;;;;;;6.83;100.00;101134.67;106405;1258;76975;-86
2024/03/15 10:06:53;;;;;;;33.50;17.70;;;;;;;6.88;100.00;101132.11;106437;1250;68764;-86
2024/03/15 10:09:27;;;;;;;31.10;18.10;;;;;;;6.94;100.00;101135.60;106668;1250;75263;-80
2024/03/15 10:12:03;;;;;;;29.80;15.80;;;;;;;7.01;100.00;101133.65;106504;1250;63645;-80
2024/03/15 10:14:37;;;;;;;41.50;24.90;;;;;;;7.01;100.00;101136.05;106514;1257;61331;-81
2024/03/15 10:17:11;;;;;;;34.70;17.40;;;;;;;7.02;100.00;101139.08;106435;1257;76106;-85
2024/03/15 10:19:46;;;;;;;30.70;17.90;;;;;;;7.02;100.00;101136.94;106383;1253;70046;-85
2024/03/15 10:22:20;;;;;;;45.90;24.10;;;;;;;7.09;100.00;101136.27;106704;1257;73361;-82
2024/03/15 10:24:54;;;;;;;49.40;27.90;;;;;;;7.08;100.00;101132.27;106613;1253;62297;-86
2024/03/15 10:27:28;;;;;;;51.70;32.50;;;;;;;7.15;100.00;101131.88;106725;1256;61116;-80
2024/03/15 10:30:02;;;;;;;42.20;23.80;;;;;;;7.06;100.00;101132.30;106312;1252;76610;-85
2024/03/15 10:32:36;;;;;;;33.20;17.40;;;;;;;7.04;100.00;101131.77;106195;1251;69697;-85
2024/03/15 10:35:19;;;;;;;32.30;17.50;;;;;;;7.05;100.00;101129.71;106446;1253;73048;-80
2024/03/15 10:37:59;;;;;;;41.90;23.50;;;;;;;7.07;100.00;101131.77;106643;1254;61936;-85
2024/03/15 10:40:40;;;;;;;34.40;18.40;;;;;;;7.00;100.00;101128.54;106409;1257;61282;-80
2024/03/15 10:43:14;;;;;;;35.60;19.10;;;;;;;7.06;100.00;101123.53;106742;1250;76138;-86
2024/03/15 10:45:48;;;;;;;35.60;18.80;;;;;;;7.00;100.00;101125.74;106502;1251;70205;-80
2024/03/15 10:48:23;;;;;;;33.40;17.70;;;;;;;7.05;100.00;101123.41;106551;1253;75018;-85
2024/03/15 10:50:57;;;;;;;31.70;18.50;;;;;;;7.14;100.00;101122.95;106387;1252;61874;-80
2024/03/15 10:53:31;;;;;;;35.00;19.40;;;;;;;7.19;100.00;101123.48;106617;1257;61176;-80
2024/03/15 10:56:06;;;;;;;31.20;18.10;;;;;;;7.20;100.00;101122.20;106398;1257;76077;-80
2024/03/15 10:58:42;;;;;;;30.60;17.00;;;;;;;7.25;100.00;101127.15;106439;1257;70588;-79
2024/03/15 11:01:17;;;;;;;30.40;17.30;;;;;;;7.26;100.00;101124.23;106450;1257;74500;-80
2024/03/15 11:03:51;;;;;;;34.20;17.70;;;;;;;7.25;100.00;101124.59;106556;1252;62478;-80
2024/03/15 11:06:47;;;;;;;28.70;16.80;;;;;;;7.31;100.00;101119.45;106403;1251;62079;-80
2024/03/15 11:09:28;;;;;;;30.10;16.70;;;;;;;7.33;100.00;101122.64;106303;1251;75949;-80
2024/03/15 11:12:03;;;;;;;28.30;15.90;;;;;;;7.28;100.00;101122.79;106533;1254;71355;-81
2024/03/15 11:14:43;;;;;;;28.60;17.90;;;;;;;7.26;100.00;101124.79;106535;1251;74655;-81
2024/03/15 11:17:23;;;;;;;23.80;15.20;;;;;;;7.26;100.00;101123.70;106549;1253;63910;-86
2024/03/15 11:20:09;;;;;;;25.30;14.50;;;;;;;7.21;100.00;101122.80;106421;1257;62296;-81
2024/03/15 11:22:37;;;;;;;28.90;16.60;;;;;;;7.08;100.00;101125.87;106509;1251;75500;-80
2024/03/15 11:25:22;;;;;;;28.30;16.60;;;;;;;7.03;100.00;101122.45;106479;1256;69653;-81
2024/03/15 11:28:02;;;;;;;27.70;16.10;;;;;;;7.05;100.00;101123.46;106530;1251;74941;-85
2024/03/15 11:30:43;;;;;;;30.70;18.00;;;;;;;7.11;100.00;101122.45;106454;1253;61373;-86
2024/03/15 11:33:11;;;;;;;39.20;22.80;;;;;;;7.10;100.00;101123.23;106491;1251;61424;-85
2024/03/15 11:35:47;;;;;;;26.40;17.10;;;;;;;7.07;100.00;101121.66;106394;1251;77119;-80
2024/03/15 11:38:21;;;;;;;37.50;22.00;;;;;;;7.09;100.00;101128.86;106602;1256;70205;-86
2024/03/15 11:41:00;;;;;;;28.70;18.60;;;;;;;7.19;100.00;101122.14;106584;1252;74112;-80
2024/03/15 11:43:34;;;;;;;35.10;21.20;;;;;;;7.27;100.00;101126.27;106453;1257;61153;-80
2024/03/15 11:46:08;;;;;;;32.80;19.70;;;;;;;7.38;100.00;101128.60;106511;1250;62084;-85
2024/03/15 11:48:42;;;;;;;31.40;18.60;;;;;;;7.27;100.00;101126.86;106397;1253;75001;-84
2024/03/15 11:51:16;;;;;;;31.00;19.10;;;;;;;7.24;100.00;101124.95;106489;1256;71351;-86
2024/03/15 11:53:50;;;;;;;31.10;18.50;;;;;;;7.54;100.00;101122.86;106415;1253;75274;-80
2024/03/15 11:56:19;;;;;;;25.80;16.00;;;;;;;7.75;100.00;101118.91;106524;1256;62057;-81
2024/03/15 11:59:00;;;;;;;26.60;17.50;;;;;;;7.95;100.00;101117.15;106475;1256;62572;-87
2024/03/15 12:01:35;;;;;;;27.30;15.70;;;;;;;7.69;100.00;101124.30;106468;1250;77587;-80
2024/03/15 12:04:09;;;;;;;24.90;15.90;;;;;;;7.63;100.00;101124.23;106377;1256;70689;-86
2024/03/15 12:06:43;;;;;;;27.60;16.80;;;;;;;7.66;100.00;101128.20;106404;1251;73839;-82
2024/03/15 12:09:18;;;;;;;30.80;17.70;;;;;;;7.66;100.00;101123.85;106642;1254;62442;-86
2024/03/15 12:11:52;;;;;;;27.80;16.50;;;;;;;7.66;100.00;101123.31;106573;1250;62672;-87
2024/03/15 12:14:26;;;;;;;25.80;16.10;;;;;;;7.79;100.00;101120.77;106286;1258;76128;-80
2024/03/15 12:17:00;;;;;;;26.50;16.40;;;;;;;7.64;100.00;101128.23;106416;1250;69953;-80
2024/03/15 12:19:40;;;;;;;26.20;16.30;;;;;;;7.68;100.00;101121.88;106405;1253;73588;-80
2024/03/15 12:22:14;;;;;;;27.60;17.20;;;;;;;7.70;100.00;101124.77;106326;1251;62449;-81
2024/03/15 12:24:54;;;;;;;29.10;16.70;;;;;;;7.73;100.00;101122.36;106453;1258;61260;-86
2024/03/15 12:27:22;;;;;;;27.80;18.20;;;;;;;7.75;100.00;101124.35;106610;1250;77377;-81
2024/03/15 12:29:50;;;;;;;25.90;16.20;;;;;;;7.74;100.00;101122.05;106399;1251;70499;-81
2024/03/15 12:32:22;;;;;;;26.00;16.30;;;;;;;7.74;100.00;101122.61;106602;1251;75020;-86
2024/03/15 12:34:51;;;;;;;27.30;17.60;;;;;;;7.78;100.00;101124.58;106619;1254;62456;-82
2024/03/15 12:37:27;;;;;;;26.50;16.30;;;;;;;7.77;100.00;101127.70;106765;1250;61294;-87
2024/03/15 12:39:55;;;;;;;28.20;16.20;;;;;;;7.66;100.00;101127.23;106583;1252;76820;-81
2024/03/15 12:42:29;;;;;;;28.40;16.30;;;;;;;7.60;100.00;101130.73;106695;1255;70756;-86
2024/03/15 12:45:03;;;;;;;27.10;16.70;;;;;;;7.60;100.00;101129.80;106395;1253;73584;-86
2024/03/15 12:47:43;;;;;;;28.30;17.00;;;;;;;7.62;100.00;101133.25;106624;1256;61601;-80
2024/03/15 12:50:26;;;;;;;26.90;15.90;;;;;;;7.71;100.00;101126.08;106831;1251;61235;-85
2024/03/15 12:53:02;;;;;;;27.20;15.80;;;;;;;7.96;100.00;101126.70;107079;1253;76649;-84
2024/03/15 12:55:43;;;;;;;25.50;14.80;;;;;;;8.09;100.00;101125.54;106415;1257;68970;-80
2024/03/15 12:58:17;;;;;;;29.10;15.70;;;;;;;8.06;100.00;101125.11;106585;1253;73893;-84
2024/03/15 13:00:57;;;;;;;24.20;15.70;;;;;;;7.77;100.00;101133.64;106618;1256;61952;-85
2024/03/15 13:03:37;;;;;;;23.50;15.10;;;;;;;7.81;100.00;101133.80;106644;1251;61291;-80
2024/03/15 13:06:06;;;;;;;27.60;15.40;;;;;;;7.57;100.00;101139.08;106580;1256;76849;-80
2024/03/15 13:08:46;;;;;;;27.40;16.10;;;;;;;7.49;100.00;101140.55;106530;1251;69992;-85
2024/03/15 13:11:23;;;;;;;26.10;15.30;;;;;;;7.34;100.00;101137.45;106661;1250;73519;-85
2024/03/15 13:14:03;;;;;;;26.00;16.60;;;;;;;7.22;100.00;101134.41;106696;1253;63443;-80
2024/03/15 13:16:38;;;;;;;26.00;14.60;;;;;;;7.17;100.00;101137.26;106637;1251;62569;-85
2024/03/15 13:19:12;;;;;;;27.90;14.80;;;;;;;7.13;100.00;101140.64;106472;1256;77366;-83
2024/03/15 13:21:46;;;;;;;20.10;13.90;;;;;;;7.18;100.00;101135.38;106430;1253;70283;-84
2024/03/15 13:24:26;;;;;;;30.90;17.20;;;;;;;7.33;100.00;101139.96;106682;1257;75012;-85
2024/03/15 13:27:00;;;;;;;22.10;13.80;;;;;;;7.43;100.00;101142.02;106499;1256;62351;-81
2024/03/15 13:29:40;;;;;;;23.70;14.70;;;;;;;7.30;100.00;101141.32;106377;1250;61553;-80
2024/03/15 13:32:20;;;;;;;22.40;14.30;;;;;;;7.10;100.00;101141.18;106497;1253;75841;-80
2024/03/15 13:35:01;;;;;;;26.90;14.80;;;;;;;7.12;100.00;101137.07;106352;1256;72151;-85
2024/03/15 13:37:35;;;;;;;25.20;15.00;;;;;;;7.10;100.00;101144.27;106615;1256;75217;-80
2024/03/15 13:40:09;;;;;;;28.30;15.50;;;;;;;7.07;100.00;101146.71;106213;1257;295177;-80
2024/03/15 13:42:50;;;;;;;23.90;13.90;;;;;;;7.04;100.00;101147.02;106469;1253;61972;-80
2024/03/15 13:45:30;;;;;;;26.80;16.90;;;;;;;7.04;100.00;101145.95;106699;1250;76847;-80
2024/03/15 13:47:59;;;;;;;27.30;15.70;;;;;;;7.02;100.00;101147.27;106526;1250;70598;-85
2024/03/15 13:50:28;;;;;;;25.20;15.60;;;;;;;7.01;100.00;101142.45;106408;1253;75179;-85
2024/03/15 13:53:28;;;;;;;23.20;15.10;;;;;;;7.02;100.00;101144.59;102972;1289;600206;-81
2024/03/15 13:56:05;;;;;;;28.50;15.10;;;;;;;6.99;100.00;101144.36;105640;1267;60285;-81
2024/03/15 13:58:39;;;;;;;26.60;14.80;;;;;;;7.06;100.00;101146.05;105410;1267;59677;-81
2024/03/15 14:01:11;;;;;;;24.30;15.10;;;;;;;7.09;100.00;101148.39;105430;1272;75351;-81
2024/03/15 14:03:43;;;;;;;28.00;15.00;;;;;;;7.13;100.00;101146.09;105579;1267;70906;-81
2024/03/15 14:06:18;;;;;;;;;;;;;;;7.00;100.00;101148.95;105456;1270;234400;-82
2024/03/15 14:08:47;;;;;;;27.80;15.00;;;;;;;6.89;100.00;101146.50;105902;1268;61246;-81
2024/03/15 14:11:21;;;;;;;28.50;15.30;;;;;;;6.98;100.00;101151.85;105819;1264;60130;-85
2024/03/15 14:13:53;;;;;;;23.90;14.10;;;;;;;6.93;100.00;101151.90;105832;1263;75182;-81
2024/03/15 14:16:27;;;;;;;24.10;14.90;;;;;;;6.94;100.00;101151.30;105662;1263;69366;-85
2024/03/15 14:18:54;;;;;;;33.20;16.60;;;;;;;7.02;100.00;101151.55;105697;1267;73549;-84
2024/03/15 14:21:40;;;;;;;26.00;16.20;;;;;;;7.03;100.00;101151.52;105834;1267;62877;-85
2024/03/15 14:24:20;;;;;;;28.10;14.50;;;;;;;6.99;100.00;101147.45;105919;1268;62326;-81
2024/03/15 14:26:54;;;;;;;24.90;13.80;;;;;;;6.96;100.00;101154.67;105863;1264;76229;-86
2024/03/15 14:29:28;;;;;;;23.10;14.30;;;;;;;6.89;100.00;101154.33;106039;1263;71500;-85
2024/03/15 14:32:08;;;;;;;23.30;12.50;;;;;;;6.87;100.00;101154.06;106044;1264;74759;-82
2024/03/15 14:34:51;;;;;;;23.00;13.30;;;;;;;6.88;100.00;101161.04;105739;1266;62748;-85
2024/03/15 14:37:28;;;;;;;22.90;12.60;;;;;;;6.90;100.00;101160.70;105655;1263;60510;-86
2024/03/15 14:39:57;;;;;;;21.90;13.10;;;;;;;6.86;100.00;101158.48;105865;1266;75997;-86
2024/03/15 14:42:32;;;;;;;22.90;12.40;;;;;;;6.83;100.00;101162.50;105593;1264;69870;-81
2024/03/15 14:45:03;;;;;;;24.00;11.60;;;;;;;6.81;100.00;101167.39;105620;1269;74656;-81
2024/03/15 14:47:30;;;;;;;19.60;10.90;;;;;;;6.78;100.00;101166.30;105718;1264;61218;-81
2024/03/15 14:49:58;;;;;;;17.40;9.80;;;;;;;6.75;100.00;101163.48;105907;1264;61596;-81
2024/03/15 14:52:26;;;;;;;16.90;10.00;;;;;;;6.67;100.00;101164.02;105654;1264;75100;-86
2024/03/15 14:54:54;;;;;;;20.70;10.30;;;;;;;6.70;100.00;101167.80;105617;1263;69507;-81
2024/03/15 14:57:29;;;;;;;27.10;11.40;;;;;;;6.65;100.00;101171.42;105616;1264;74635;-81
2024/03/15 15:00:00;;;;;;;23.30;11.70;;;;;;;6.58;100.00;101171.42;105657;1269;61055;-86
2024/03/15 15:02:36;;;;;;;22.60;12.50;;;;;;;6.54;100.00;101173.38;105624;1267;61053;-86
2024/03/15 15:05:10;;;;;;;23.60;12.20;;;;;;;6.53;100.00;101177.65;105659;1269;73777;-84
2024/03/15 15:07:44;;;;;;;25.30;12.80;;;;;;;6.50;100.00;101178.75;105712;1266;69720;-85
2024/03/15 15:10:18;;;;;;;23.40;12.60;;;;;;;6.47;100.00;101181.80;105685;1264;76489;-86
2024/03/15 15:12:53;;;;;;;17.40;12.00;;;;;;;6.43;100.00;101181.11;105659;1267;62273;-81
2024/03/15 15:15:27;;;;;;;23.20;11.70;;;;;;;6.40;100.00;101180.83;105528;1266;60919;-81
2024/03/15 15:17:55;;;;;;;18.10;11.60;;;;;;;6.37;100.00;101181.71;105714;1268;76050;-86
2024/03/15 15:20:23;;;;;;;17.70;10.80;;;;;;;6.36;100.00;101181.52;105654;1263;69744;-85
2024/03/15 15:23:04;;;;;;;25.10;11.20;;;;;;;6.34;100.00;101180.46;105721;1268;74938;-81
2024/03/15 15:25:46;;;;;;;;;;;;;;;6.30;100.00;101181.87;105823;1264;62627;-86
2024/03/15 15:28:26;;;;;;;17.40;10.00;;;;;;;6.24;100.00;101179.06;105688;1264;62286;-85
2024/03/15 15:31:06;;;;;;;15.60;9.80;;;;;;;6.15;100.00;101180.02;105535;1269;74574;-81
2024/03/15 15:33:46;;;;;;;23.20;11.90;;;;;;;6.10;100.00;101181.14;105649;1264;70428;-82
2024/03/15 15:36:26;;;;;;;19.60;10.50;;;;;;;6.04;100.00;101177.71;106277;1263;74723;-82
2024/03/15 15:39:06;;;;;;;18.20;11.50;;;;;;;6.00;100.00;101180.77;106096;1263;63610;-81
2024/03/15 15:41:33;;;;;;;20.30;11.30;;;;;;;5.99;100.00;101182.55;106202;1258;60528;-86